sensor_id;sensor_type;location;lat;lon;timestamp;temperature;humidity
66506;HTU21D;53332;51.082;5.832;2023-07-24T00:01:30;19.69;118.99
66506;HTU21D;53332;51.082;5.832;2023-07-24T00:03:56;19.69;118.99
66506;HTU21D;53332;51.082;5.832;2023-07-24T00:06:22;19.68;118.99
66506;HTU21D;53332;51.082;5.832;2023-07-24T00:08:47;19.69;118.99
66506;HTU21D;53332;51.082;5.832;2023-07-24T00:11:13;19.71;118.99
66506;HTU21D;53332;51.082;5.832;2023-07-24T00:13:38;19.70;118.99
66506;HTU21D;53332;51.082;5.832;2023-07-24T00:16:08;19.70;118.99
66506;HTU21D;53332;51.082;5.832;2023-07-24T00:18:33;19.72;118.99
66506;HTU21D;53332;51.082;5.832;2023-07-24T00:20:59;19.81;118.99
66506;HTU21D;53332;51.082;5.832;2023-07-24T00:23:24;19.75;118.99
66506;HTU21D;53332;51.082;5.832;2023-07-24T00:25:50;19.74;118.99
66506;HTU21D;53332;51.082;5.832;2023-07-24T00:28:15;19.79;118.99
66506;HTU21D;53332;51.082;5.832;2023-07-24T00:30:42;19.77;118.99
66506;HTU21D;53332;51.082;5.832;2023-07-24T00:33:08;19.77;118.99
66506;HTU21D;53332;51.082;5.832;2023-07-24T00:35:33;19.76;118.99
66506;HTU21D;53332;51.082;5.832;2023-07-24T00:37:59;19.76;118.99
66506;HTU21D;53332;51.082;5.832;2023-07-24T00:40:24;19.77;118.99
66506;HTU21D;53332;51.082;5.832;2023-07-24T00:42:50;19.80;118.99
66506;HTU21D;53332;51.082;5.832;2023-07-24T00:45:15;19.81;118.99
66506;HTU21D;53332;51.082;5.832;2023-07-24T00:47:42;19.82;118.99
66506;HTU21D;53332;51.082;5.832;2023-07-24T00:50:09;19.85;118.99
66506;HTU21D;53332;51.082;5.832;2023-07-24T00:52:36;19.87;118.99
66506;HTU21D;53332;51.082;5.832;2023-07-24T00:55:02;19.87;118.99
66506;HTU21D;53332;51.082;5.832;2023-07-24T00:57:28;19.90;118.99
66506;HTU21D;53332;51.082;5.832;2023-07-24T00:59:54;19.91;118.99
66506;HTU21D;53332;51.082;5.832;2023-07-24T01:02:20;19.92;118.99
66506;HTU21D;53332;51.082;5.832;2023-07-24T01:04:46;19.95;118.99
66506;HTU21D;53332;51.082;5.832;2023-07-24T01:07:12;19.98;118.99
66506;HTU21D;53332;51.082;5.832;2023-07-24T01:09:37;19.98;118.99
66506;HTU21D;53332;51.082;5.832;2023-07-24T01:12:31;19.98;118.99
66506;HTU21D;53332;51.082;5.832;2023-07-24T01:15:08;19.99;118.99
66506;HTU21D;53332;51.082;5.832;2023-07-24T01:17:40;19.99;118.99
66506;HTU21D;53332;51.082;5.832;2023-07-24T01:20:11;20.01;118.99
66506;HTU21D;53332;51.082;5.832;2023-07-24T01:22:39;20.03;118.99
66506;HTU21D;53332;51.082;5.832;2023-07-24T01:25:28;20.04;118.99
66506;HTU21D;53332;51.082;5.832;2023-07-24T01:27:57;20.09;118.99
66506;HTU21D;53332;51.082;5.832;2023-07-24T01:30:22;20.12;118.99
66506;HTU21D;53332;51.082;5.832;2023-07-24T01:32:49;20.13;118.99
66506;HTU21D;53332;51.082;5.832;2023-07-24T01:35:15;20.15;118.99
66506;HTU21D;53332;51.082;5.832;2023-07-24T01:37:42;20.16;118.99
66506;HTU21D;53332;51.082;5.832;2023-07-24T01:40:10;20.18;118.99
66506;HTU21D;53332;51.082;5.832;2023-07-24T01:42:36;20.19;118.99
66506;HTU21D;53332;51.082;5.832;2023-07-24T01:45:03;20.17;118.99
66506;HTU21D;53332;51.082;5.832;2023-07-24T01:47:29;20.17;118.99
66506;HTU21D;53332;51.082;5.832;2023-07-24T01:49:56;20.18;118.99
66506;HTU21D;53332;51.082;5.832;2023-07-24T01:52:22;20.19;118.99
66506;HTU21D;53332;51.082;5.832;2023-07-24T01:54:47;20.19;118.99
66506;HTU21D;53332;51.082;5.832;2023-07-24T01:57:13;20.18;118.99
66506;HTU21D;53332;51.082;5.832;2023-07-24T01:59:38;20.20;118.99
66506;HTU21D;53332;51.082;5.832;2023-07-24T02:02:04;20.22;118.99
66506;HTU21D;53332;51.082;5.832;2023-07-24T02:04:30;20.22;118.99
66506;HTU21D;53332;51.082;5.832;2023-07-24T02:06:55;20.25;118.99
66506;HTU21D;53332;51.082;5.832;2023-07-24T02:09:21;20.26;118.99
66506;HTU21D;53332;51.082;5.832;2023-07-24T02:11:46;20.25;118.99
66506;HTU21D;53332;51.082;5.832;2023-07-24T02:14:13;20.22;118.99
66506;HTU21D;53332;51.082;5.832;2023-07-24T02:16:39;20.21;118.99
66506;HTU21D;53332;51.082;5.832;2023-07-24T02:19:05;20.21;118.99
66506;HTU21D;53332;51.082;5.832;2023-07-24T02:21:31;20.26;118.99
66506;HTU21D;53332;51.082;5.832;2023-07-24T02:23:57;20.19;118.99
66506;HTU21D;53332;51.082;5.832;2023-07-24T02:26:23;20.18;118.99
66506;HTU21D;53332;51.082;5.832;2023-07-24T02:28:48;20.16;118.99
66506;HTU21D;53332;51.082;5.832;2023-07-24T02:31:14;20.17;118.99
66506;HTU21D;53332;51.082;5.832;2023-07-24T02:33:39;20.13;118.99
66506;HTU21D;53332;51.082;5.832;2023-07-24T02:36:05;20.13;118.99
66506;HTU21D;53332;51.082;5.832;2023-07-24T02:38:30;20.14;118.99
66506;HTU21D;53332;51.082;5.832;2023-07-24T02:40:56;20.15;118.99
66506;HTU21D;53332;51.082;5.832;2023-07-24T02:43:22;20.15;118.99
66506;HTU21D;53332;51.082;5.832;2023-07-24T02:45:47;20.16;118.99
66506;HTU21D;53332;51.082;5.832;2023-07-24T02:48:13;20.16;118.99
66506;HTU21D;53332;51.082;5.832;2023-07-24T02:50:38;20.16;118.99
66506;HTU21D;53332;51.082;5.832;2023-07-24T02:53:04;20.13;118.99
66506;HTU21D;53332;51.082;5.832;2023-07-24T02:55:30;20.09;118.99
66506;HTU21D;53332;51.082;5.832;2023-07-24T02:57:55;20.07;118.99
66506;HTU21D;53332;51.082;5.832;2023-07-24T03:00:21;20.04;118.99
66506;HTU21D;53332;51.082;5.832;2023-07-24T03:02:46;20.06;118.99
66506;HTU21D;53332;51.082;5.832;2023-07-24T03:05:12;20.07;118.99
66506;HTU21D;53332;51.082;5.832;2023-07-24T03:07:37;20.07;118.99
66506;HTU21D;53332;51.082;5.832;2023-07-24T03:10:03;20.06;118.99
66506;HTU21D;53332;51.082;5.832;2023-07-24T03:12:29;20.07;118.99
66506;HTU21D;53332;51.082;5.832;2023-07-24T03:14:54;20.05;118.99
66506;HTU21D;53332;51.082;5.832;2023-07-24T03:17:20;20.00;118.99
66506;HTU21D;53332;51.082;5.832;2023-07-24T03:19:45;19.95;118.99
66506;HTU21D;53332;51.082;5.832;2023-07-24T03:22:11;19.87;118.99
66506;HTU21D;53332;51.082;5.832;2023-07-24T03:24:36;19.81;118.99
66506;HTU21D;53332;51.082;5.832;2023-07-24T03:27:02;19.77;118.99
66506;HTU21D;53332;51.082;5.832;2023-07-24T03:29:28;19.75;118.99
66506;HTU21D;53332;51.082;5.832;2023-07-24T03:31:53;19.75;118.99
66506;HTU21D;53332;51.082;5.832;2023-07-24T03:34:19;19.73;118.99
66506;HTU21D;53332;51.082;5.832;2023-07-24T03:36:44;19.69;118.99
66506;HTU21D;53332;51.082;5.832;2023-07-24T03:39:10;19.69;118.99
66506;HTU21D;53332;51.082;5.832;2023-07-24T03:41:37;19.70;118.99
66506;HTU21D;53332;51.082;5.832;2023-07-24T03:44:03;19.65;118.99
66506;HTU21D;53332;51.082;5.832;2023-07-24T03:46:28;19.63;118.99
66506;HTU21D;53332;51.082;5.832;2023-07-24T03:48:54;19.66;118.99
66506;HTU21D;53332;51.082;5.832;2023-07-24T03:51:19;19.65;118.99
66506;HTU21D;53332;51.082;5.832;2023-07-24T03:53:45;19.65;118.99
66506;HTU21D;53332;51.082;5.832;2023-07-24T03:56:11;19.68;118.99
66506;HTU21D;53332;51.082;5.832;2023-07-24T03:58:37;19.70;118.99
66506;HTU21D;53332;51.082;5.832;2023-07-24T04:01:04;19.70;118.99
66506;HTU21D;53332;51.082;5.832;2023-07-24T04:03:29;19.72;118.99
66506;HTU21D;53332;51.082;5.832;2023-07-24T04:05:55;19.71;118.99
66506;HTU21D;53332;51.082;5.832;2023-07-24T04:08:20;19.69;118.99
66506;HTU21D;53332;51.082;5.832;2023-07-24T04:10:46;19.71;118.99
66506;HTU21D;53332;51.082;5.832;2023-07-24T04:13:11;19.72;118.99
66506;HTU21D;53332;51.082;5.832;2023-07-24T04:15:37;19.74;118.99
66506;HTU21D;53332;51.082;5.832;2023-07-24T04:18:03;19.76;118.99
66506;HTU21D;53332;51.082;5.832;2023-07-24T04:20:29;19.77;118.99
66506;HTU21D;53332;51.082;5.832;2023-07-24T04:22:54;19.81;118.99
66506;HTU21D;53332;51.082;5.832;2023-07-24T04:25:20;19.75;118.99
66506;HTU21D;53332;51.082;5.832;2023-07-24T04:27:46;19.71;118.99
66506;HTU21D;53332;51.082;5.832;2023-07-24T04:30:12;19.70;118.99
66506;HTU21D;53332;51.082;5.832;2023-07-24T04:32:37;19.68;118.99
66506;HTU21D;53332;51.082;5.832;2023-07-24T04:35:03;19.69;118.99
66506;HTU21D;53332;51.082;5.832;2023-07-24T04:37:28;19.69;118.99
66506;HTU21D;53332;51.082;5.832;2023-07-24T04:39:54;19.68;118.99
66506;HTU21D;53332;51.082;5.832;2023-07-24T04:42:19;19.68;118.99
66506;HTU21D;53332;51.082;5.832;2023-07-24T04:44:50;19.66;118.99
66506;HTU21D;53332;51.082;5.832;2023-07-24T04:47:17;19.67;118.99
66506;HTU21D;53332;51.082;5.832;2023-07-24T04:49:42;19.68;118.99
66506;HTU21D;53332;51.082;5.832;2023-07-24T04:52:11;19.69;118.99
66506;HTU21D;53332;51.082;5.832;2023-07-24T04:54:46;19.70;118.99
66506;HTU21D;53332;51.082;5.832;2023-07-24T04:57:11;19.71;118.99
66506;HTU21D;53332;51.082;5.832;2023-07-24T04:59:37;19.72;118.99
66506;HTU21D;53332;51.082;5.832;2023-07-24T05:02:03;19.71;118.99
66506;HTU21D;53332;51.082;5.832;2023-07-24T05:04:36;19.69;118.99
66506;HTU21D;53332;51.082;5.832;2023-07-24T05:07:02;19.69;118.99
66506;HTU21D;53332;51.082;5.832;2023-07-24T05:09:27;19.70;118.99
66506;HTU21D;53332;51.082;5.832;2023-07-24T05:11:53;19.67;118.99
66506;HTU21D;53332;51.082;5.832;2023-07-24T05:14:19;19.65;118.99
66506;HTU21D;53332;51.082;5.832;2023-07-24T05:16:44;19.63;118.99
66506;HTU21D;53332;51.082;5.832;2023-07-24T05:19:10;19.65;118.99
66506;HTU21D;53332;51.082;5.832;2023-07-24T05:21:36;19.66;118.99
66506;HTU21D;53332;51.082;5.832;2023-07-24T05:24:01;19.68;118.99
66506;HTU21D;53332;51.082;5.832;2023-07-24T05:26:27;19.73;118.99
66506;HTU21D;53332;51.082;5.832;2023-07-24T05:28:52;19.75;118.99
66506;HTU21D;53332;51.082;5.832;2023-07-24T05:31:18;19.74;118.99
66506;HTU21D;53332;51.082;5.832;2023-07-24T05:33:44;19.77;118.99
66506;HTU21D;53332;51.082;5.832;2023-07-24T05:36:09;19.82;118.99
66506;HTU21D;53332;51.082;5.832;2023-07-24T05:38:35;19.84;118.99
66506;HTU21D;53332;51.082;5.832;2023-07-24T05:41:02;19.84;118.99
66506;HTU21D;53332;51.082;5.832;2023-07-24T05:43:29;19.86;118.99
66506;HTU21D;53332;51.082;5.832;2023-07-24T05:45:56;19.89;118.99
66506;HTU21D;53332;51.082;5.832;2023-07-24T05:48:22;19.89;118.99
66506;HTU21D;53332;51.082;5.832;2023-07-24T05:50:51;19.95;118.99
66506;HTU21D;53332;51.082;5.832;2023-07-24T05:53:17;19.95;118.99
66506;HTU21D;53332;51.082;5.832;2023-07-24T05:55:43;19.95;118.99
66506;HTU21D;53332;51.082;5.832;2023-07-24T05:58:09;19.95;118.99
66506;HTU21D;53332;51.082;5.832;2023-07-24T06:00:34;19.96;118.99
66506;HTU21D;53332;51.082;5.832;2023-07-24T06:03:02;19.96;118.99
66506;HTU21D;53332;51.082;5.832;2023-07-24T06:05:30;19.94;118.99
66506;HTU21D;53332;51.082;5.832;2023-07-24T06:07:56;19.89;118.99
66506;HTU21D;53332;51.082;5.832;2023-07-24T06:10:21;19.85;118.99
66506;HTU21D;53332;51.082;5.832;2023-07-24T06:12:50;19.81;118.99
66506;HTU21D;53332;51.082;5.832;2023-07-24T06:15:15;19.74;118.99
66506;HTU21D;53332;51.082;5.832;2023-07-24T06:17:41;19.70;118.99
66506;HTU21D;53332;51.082;5.832;2023-07-24T06:20:09;19.69;118.99
66506;HTU21D;53332;51.082;5.832;2023-07-24T06:22:35;19.68;118.99
66506;HTU21D;53332;51.082;5.832;2023-07-24T06:25:00;19.65;118.99
66506;HTU21D;53332;51.082;5.832;2023-07-24T06:27:26;19.63;118.99
66506;HTU21D;53332;51.082;5.832;2023-07-24T06:29:53;19.63;118.99
66506;HTU21D;53332;51.082;5.832;2023-07-24T06:32:18;19.61;118.99
66506;HTU21D;53332;51.082;5.832;2023-07-24T06:34:44;19.63;118.99
66506;HTU21D;53332;51.082;5.832;2023-07-24T06:37:09;19.62;118.99
66506;HTU21D;53332;51.082;5.832;2023-07-24T06:39:35;19.60;118.99
66506;HTU21D;53332;51.082;5.832;2023-07-24T06:42:01;19.59;118.99
66506;HTU21D;53332;51.082;5.832;2023-07-24T06:44:26;19.57;118.99
66506;HTU21D;53332;51.082;5.832;2023-07-24T06:46:52;19.57;118.99
66506;HTU21D;53332;51.082;5.832;2023-07-24T06:49:17;19.53;118.99
66506;HTU21D;53332;51.082;5.832;2023-07-24T06:51:43;19.54;118.99
66506;HTU21D;53332;51.082;5.832;2023-07-24T06:54:08;19.59;118.99
66506;HTU21D;53332;51.082;5.832;2023-07-24T06:56:34;19.62;118.99
66506;HTU21D;53332;51.082;5.832;2023-07-24T06:58:59;19.62;118.99
66506;HTU21D;53332;51.082;5.832;2023-07-24T07:01:25;19.66;118.99
66506;HTU21D;53332;51.082;5.832;2023-07-24T07:03:50;19.70;118.99
66506;HTU21D;53332;51.082;5.832;2023-07-24T07:06:16;19.80;118.99
66506;HTU21D;53332;51.082;5.832;2023-07-24T07:08:42;19.86;118.99
66506;HTU21D;53332;51.082;5.832;2023-07-24T07:11:07;19.90;118.99
66506;HTU21D;53332;51.082;5.832;2023-07-24T07:13:33;19.94;118.99
66506;HTU21D;53332;51.082;5.832;2023-07-24T07:15:58;20.00;118.99
66506;HTU21D;53332;51.082;5.832;2023-07-24T07:18:24;20.05;118.99
66506;HTU21D;53332;51.082;5.832;2023-07-24T07:20:56;20.11;118.99
66506;HTU21D;53332;51.082;5.832;2023-07-24T07:23:22;20.10;118.99
66506;HTU21D;53332;51.082;5.832;2023-07-24T07:25:50;20.11;118.99
66506;HTU21D;53332;51.082;5.832;2023-07-24T07:28:16;20.12;118.99
66506;HTU21D;53332;51.082;5.832;2023-07-24T07:30:42;20.07;118.99
66506;HTU21D;53332;51.082;5.832;2023-07-24T07:33:08;20.04;118.99
66506;HTU21D;53332;51.082;5.832;2023-07-24T07:35:36;20.06;118.99
66506;HTU21D;53332;51.082;5.832;2023-07-24T07:38:02;20.12;118.99
66506;HTU21D;53332;51.082;5.832;2023-07-24T07:40:29;20.17;118.99
66506;HTU21D;53332;51.082;5.832;2023-07-24T07:42:56;20.20;118.99
66506;HTU21D;53332;51.082;5.832;2023-07-24T07:45:23;20.21;118.99
66506;HTU21D;53332;51.082;5.832;2023-07-24T07:47:49;20.28;118.99
66506;HTU21D;53332;51.082;5.832;2023-07-24T07:50:15;20.33;118.99
66506;HTU21D;53332;51.082;5.832;2023-07-24T07:52:41;20.40;118.99
66506;HTU21D;53332;51.082;5.832;2023-07-24T07:55:09;20.42;118.99
66506;HTU21D;53332;51.082;5.832;2023-07-24T07:57:37;20.43;118.99
66506;HTU21D;53332;51.082;5.832;2023-07-24T08:00:04;20.49;118.99
66506;HTU21D;53332;51.082;5.832;2023-07-24T08:02:31;20.50;118.99
66506;HTU21D;53332;51.082;5.832;2023-07-24T08:04:58;20.50;118.99
66506;HTU21D;53332;51.082;5.832;2023-07-24T08:07:23;20.48;118.99
66506;HTU21D;53332;51.082;5.832;2023-07-24T08:09:49;20.48;118.99
66506;HTU21D;53332;51.082;5.832;2023-07-24T08:12:14;20.44;118.99
66506;HTU21D;53332;51.082;5.832;2023-07-24T08:14:40;20.43;118.99
66506;HTU21D;53332;51.082;5.832;2023-07-24T08:17:06;20.46;118.99
66506;HTU21D;53332;51.082;5.832;2023-07-24T08:19:31;20.45;118.99
66506;HTU21D;53332;51.082;5.832;2023-07-24T08:21:57;20.45;118.99
66506;HTU21D;53332;51.082;5.832;2023-07-24T08:24:23;20.40;118.99
66506;HTU21D;53332;51.082;5.832;2023-07-24T08:26:49;20.46;118.99
66506;HTU21D;53332;51.082;5.832;2023-07-24T08:29:17;20.51;118.99
66506;HTU21D;53332;51.082;5.832;2023-07-24T08:31:46;20.59;118.99
66506;HTU21D;53332;51.082;5.832;2023-07-24T08:34:28;20.79;118.99
66506;HTU21D;53332;51.082;5.832;2023-07-24T08:36:54;21.01;118.99
66506;HTU21D;53332;51.082;5.832;2023-07-24T08:39:20;21.25;118.99
66506;HTU21D;53332;51.082;5.832;2023-07-24T08:41:45;21.39;118.99
66506;HTU21D;53332;51.082;5.832;2023-07-24T08:44:11;21.61;118.99
66506;HTU21D;53332;51.082;5.832;2023-07-24T08:46:38;21.81;118.99
66506;HTU21D;53332;51.082;5.832;2023-07-24T08:49:11;21.91;118.99
66506;HTU21D;53332;51.082;5.832;2023-07-24T08:51:37;21.90;118.99
66506;HTU21D;53332;51.082;5.832;2023-07-24T08:54:04;21.83;118.99
66506;HTU21D;53332;51.082;5.832;2023-07-24T08:56:30;21.78;118.99
66506;HTU21D;53332;51.082;5.832;2023-07-24T08:58:55;21.80;118.99
66506;HTU21D;53332;51.082;5.832;2023-07-24T09:01:21;21.75;118.99
66506;HTU21D;53332;51.082;5.832;2023-07-24T09:03:54;21.65;118.99
66506;HTU21D;53332;51.082;5.832;2023-07-24T09:06:26;21.64;118.99
66506;HTU21D;53332;51.082;5.832;2023-07-24T09:08:54;21.62;118.99
66506;HTU21D;53332;51.082;5.832;2023-07-24T09:11:22;21.59;118.99
66506;HTU21D;53332;51.082;5.832;2023-07-24T09:13:59;21.58;118.99
66506;HTU21D;53332;51.082;5.832;2023-07-24T09:16:26;21.57;118.99
66506;HTU21D;53332;51.082;5.832;2023-07-24T09:18:58;21.52;118.99
66506;HTU21D;53332;51.082;5.832;2023-07-24T09:21:32;21.51;118.99
66506;HTU21D;53332;51.082;5.832;2023-07-24T09:24:10;21.49;118.99
66506;HTU21D;53332;51.082;5.832;2023-07-24T09:27:01;21.47;118.99
66506;HTU21D;53332;51.082;5.832;2023-07-24T09:29:31;21.51;118.99
66506;HTU21D;53332;51.082;5.832;2023-07-24T09:32:00;21.54;118.99
66506;HTU21D;53332;51.082;5.832;2023-07-24T09:34:26;21.58;118.99
66506;HTU21D;53332;51.082;5.832;2023-07-24T09:36:52;21.59;118.99
66506;HTU21D;53332;51.082;5.832;2023-07-24T09:39:26;21.60;118.99
66506;HTU21D;53332;51.082;5.832;2023-07-24T09:41:53;21.59;118.74
66506;HTU21D;53332;51.082;5.832;2023-07-24T09:44:20;21.65;118.86
66506;HTU21D;53332;51.082;5.832;2023-07-24T09:46:45;21.67;118.88
66506;HTU21D;53332;51.082;5.832;2023-07-24T09:49:12;21.66;118.18
66506;HTU21D;53332;51.082;5.832;2023-07-24T09:51:37;21.66;118.99
66506;HTU21D;53332;51.082;5.832;2023-07-24T09:54:15;21.72;118.99
66506;HTU21D;53332;51.082;5.832;2023-07-24T09:56:47;21.73;118.99
66506;HTU21D;53332;51.082;5.832;2023-07-24T09:59:15;21.74;118.99
66506;HTU21D;53332;51.082;5.832;2023-07-24T10:01:41;21.69;118.99
66506;HTU21D;53332;51.082;5.832;2023-07-24T10:04:09;21.66;118.99
66506;HTU21D;53332;51.082;5.832;2023-07-24T10:06:35;21.62;118.99
66506;HTU21D;53332;51.082;5.832;2023-07-24T10:09:01;21.52;118.99
66506;HTU21D;53332;51.082;5.832;2023-07-24T10:11:30;21.42;118.99
66506;HTU21D;53332;51.082;5.832;2023-07-24T10:14:00;21.29;118.99
66506;HTU21D;53332;51.082;5.832;2023-07-24T10:16:35;21.23;118.99
66506;HTU21D;53332;51.082;5.832;2023-07-24T10:19:01;21.16;118.99
66506;HTU21D;53332;51.082;5.832;2023-07-24T10:21:46;21.09;118.99
66506;HTU21D;53332;51.082;5.832;2023-07-24T10:24:12;20.99;118.99
66506;HTU21D;53332;51.082;5.832;2023-07-24T10:26:40;20.91;118.99
66506;HTU21D;53332;51.082;5.832;2023-07-24T10:29:14;20.88;118.99
66506;HTU21D;53332;51.082;5.832;2023-07-24T10:31:53;20.88;118.99
66506;HTU21D;53332;51.082;5.832;2023-07-24T10:34:19;20.89;118.99
66506;HTU21D;53332;51.082;5.832;2023-07-24T10:36:46;20.83;118.99
66506;HTU21D;53332;51.082;5.832;2023-07-24T10:39:16;20.75;118.99
66506;HTU21D;53332;51.082;5.832;2023-07-24T10:41:44;20.62;118.99
66506;HTU21D;53332;51.082;5.832;2023-07-24T10:44:10;20.44;118.99
66506;HTU21D;53332;51.082;5.832;2023-07-24T10:46:40;20.26;118.99
66506;HTU21D;53332;51.082;5.832;2023-07-24T10:49:07;20.16;118.99
66506;HTU21D;53332;51.082;5.832;2023-07-24T10:51:33;20.20;118.99
66506;HTU21D;53332;51.082;5.832;2023-07-24T10:57:27;20.66;118.99
66506;HTU21D;53332;51.082;5.832;2023-07-24T10:59:53;20.86;118.99
66506;HTU21D;53332;51.082;5.832;2023-07-24T11:02:26;21.03;118.99
66506;HTU21D;53332;51.082;5.832;2023-07-24T11:04:58;21.14;118.99
66506;HTU21D;53332;51.082;5.832;2023-07-24T11:07:25;21.22;118.99
66506;HTU21D;53332;51.082;5.832;2023-07-24T11:09:50;21.29;118.99
66506;HTU21D;53332;51.082;5.832;2023-07-24T11:12:16;21.30;118.99
66506;HTU21D;53332;51.082;5.832;2023-07-24T11:14:57;21.37;118.99
66506;HTU21D;53332;51.082;5.832;2023-07-24T11:17:34;21.38;118.99
66506;HTU21D;53332;51.082;5.832;2023-07-24T11:20:11;21.33;118.99
66506;HTU21D;53332;51.082;5.832;2023-07-24T11:22:39;21.28;118.99
66506;HTU21D;53332;51.082;5.832;2023-07-24T11:25:05;21.27;118.99
66506;HTU21D;53332;51.082;5.832;2023-07-24T11:27:32;21.33;118.99
66506;HTU21D;53332;51.082;5.832;2023-07-24T11:29:58;21.35;118.99
66506;HTU21D;53332;51.082;5.832;2023-07-24T11:32:43;21.31;118.99
66506;HTU21D;53332;51.082;5.832;2023-07-24T11:35:09;21.28;118.99
66506;HTU21D;53332;51.082;5.832;2023-07-24T11:37:35;21.23;118.99
66506;HTU21D;53332;51.082;5.832;2023-07-24T11:40:03;21.16;118.99
66506;HTU21D;53332;51.082;5.832;2023-07-24T11:42:54;21.10;118.99
66506;HTU21D;53332;51.082;5.832;2023-07-24T11:45:19;21.10;118.99
66506;HTU21D;53332;51.082;5.832;2023-07-24T11:47:46;21.10;118.99
66506;HTU21D;53332;51.082;5.832;2023-07-24T11:50:15;21.15;118.99
66506;HTU21D;53332;51.082;5.832;2023-07-24T11:53:01;21.15;118.99
66506;HTU21D;53332;51.082;5.832;2023-07-24T11:55:31;21.18;118.99
66506;HTU21D;53332;51.082;5.832;2023-07-24T11:58:01;21.21;118.99
66506;HTU21D;53332;51.082;5.832;2023-07-24T12:00:48;21.27;118.99
66506;HTU21D;53332;51.082;5.832;2023-07-24T12:03:21;21.31;118.99
66506;HTU21D;53332;51.082;5.832;2023-07-24T12:05:50;21.34;118.99
66506;HTU21D;53332;51.082;5.832;2023-07-24T12:08:18;21.40;118.99
66506;HTU21D;53332;51.082;5.832;2023-07-24T12:10:49;21.51;118.99
66506;HTU21D;53332;51.082;5.832;2023-07-24T12:13:14;21.60;118.99
66506;HTU21D;53332;51.082;5.832;2023-07-24T12:15:40;21.64;118.99
66506;HTU21D;53332;51.082;5.832;2023-07-24T12:18:06;21.80;118.99
66506;HTU21D;53332;51.082;5.832;2023-07-24T12:20:35;22.01;118.99
66506;HTU21D;53332;51.082;5.832;2023-07-24T12:23:09;22.21;118.99
66506;HTU21D;53332;51.082;5.832;2023-07-24T12:25:35;22.36;118.99
66506;HTU21D;53332;51.082;5.832;2023-07-24T12:28:04;22.50;118.99
66506;HTU21D;53332;51.082;5.832;2023-07-24T12:30:29;22.66;118.99
66506;HTU21D;53332;51.082;5.832;2023-07-24T12:33:03;22.81;117.47
66506;HTU21D;53332;51.082;5.832;2023-07-24T12:35:41;22.85;113.27
66506;HTU21D;53332;51.082;5.832;2023-07-24T12:38:07;22.81;112.43
66506;HTU21D;53332;51.082;5.832;2023-07-24T12:40:33;22.86;112.03
66506;HTU21D;53332;51.082;5.832;2023-07-24T12:43:01;22.82;109.88
66506;HTU21D;53332;51.082;5.832;2023-07-24T12:45:36;22.72;108.92
66506;HTU21D;53332;51.082;5.832;2023-07-24T12:48:01;22.73;109.03
66506;HTU21D;53332;51.082;5.832;2023-07-24T12:50:27;22.70;106.80
66506;HTU21D;53332;51.082;5.832;2023-07-24T12:52:56;22.67;105.60
66506;HTU21D;53332;51.082;5.832;2023-07-24T12:55:21;22.69;105.77
66506;HTU21D;53332;51.082;5.832;2023-07-24T12:57:47;22.68;105.33
66506;HTU21D;53332;51.082;5.832;2023-07-24T13:00:13;22.65;105.08
66506;HTU21D;53332;51.082;5.832;2023-07-24T13:02:38;22.73;104.89
66506;HTU21D;53332;51.082;5.832;2023-07-24T13:05:07;22.86;102.96
66506;HTU21D;53332;51.082;5.832;2023-07-24T13:07:54;22.96;101.70
66506;HTU21D;53332;51.082;5.832;2023-07-24T13:10:25;22.99;101.38
66506;HTU21D;53332;51.082;5.832;2023-07-24T13:12:50;22.93;99.97
66506;HTU21D;53332;51.082;5.832;2023-07-24T13:15:27;22.84;100.28
66506;HTU21D;53332;51.082;5.832;2023-07-24T13:17:55;22.78;101.09
66506;HTU21D;53332;51.082;5.832;2023-07-24T13:20:20;22.66;99.55
66506;HTU21D;53332;51.082;5.832;2023-07-24T13:23:03;22.57;100.21
66506;HTU21D;53332;51.082;5.832;2023-07-24T13:25:47;22.44;100.99
66506;HTU21D;53332;51.082;5.832;2023-07-24T13:28:16;22.27;100.49
66506;HTU21D;53332;51.082;5.832;2023-07-24T13:30:47;22.14;100.93
66506;HTU21D;53332;51.082;5.832;2023-07-24T13:33:22;21.99;101.15
66506;HTU21D;53332;51.082;5.832;2023-07-24T13:35:50;21.95;101.61
66506;HTU21D;53332;51.082;5.832;2023-07-24T13:38:20;21.87;99.25
66506;HTU21D;53332;51.082;5.832;2023-07-24T13:40:46;21.77;99.42
66506;HTU21D;53332;51.082;5.832;2023-07-24T13:43:23;21.75;100.37
66506;HTU21D;53332;51.082;5.832;2023-07-24T13:45:50;21.74;102.31
66506;HTU21D;53332;51.082;5.832;2023-07-24T13:48:15;21.68;103.66
66506;HTU21D;53332;51.082;5.832;2023-07-24T13:50:49;21.55;103.01
66506;HTU21D;53332;51.082;5.832;2023-07-24T13:53:15;21.57;103.41
66506;HTU21D;53332;51.082;5.832;2023-07-24T13:55:41;21.64;105.57
66506;HTU21D;53332;51.082;5.832;2023-07-24T14:01:07;21.72;105.18
66506;HTU21D;53332;51.082;5.832;2023-07-24T14:03:48;21.79;103.48
66506;HTU21D;53332;51.082;5.832;2023-07-24T14:06:25;21.79;101.88
66506;HTU21D;53332;51.082;5.832;2023-07-24T14:09:38;21.87;102.85
66506;HTU21D;53332;51.082;5.832;2023-07-24T14:15:02;21.97;101.20
66506;HTU21D;53332;51.082;5.832;2023-07-24T14:20:41;22.09;98.76
66506;HTU21D;53332;51.082;5.832;2023-07-24T14:23:10;22.19;98.48
66506;HTU21D;53332;51.082;5.832;2023-07-24T14:25:59;22.23;98.77
66506;HTU21D;53332;51.082;5.832;2023-07-24T14:28:33;22.34;98.42
66506;HTU21D;53332;51.082;5.832;2023-07-24T14:30:59;22.43;97.21
66506;HTU21D;53332;51.082;5.832;2023-07-24T14:33:41;22.58;97.00
66506;HTU21D;53332;51.082;5.832;2023-07-24T14:36:27;22.68;95.29
66506;HTU21D;53332;51.082;5.832;2023-07-24T14:42:15;22.81;95.33
66506;HTU21D;53332;51.082;5.832;2023-07-24T14:44:43;22.94;95.04
66506;HTU21D;53332;51.082;5.832;2023-07-24T14:47:12;23.00;93.65
66506;HTU21D;53332;51.082;5.832;2023-07-24T14:50:00;22.93;92.50
66506;HTU21D;53332;51.082;5.832;2023-07-24T14:52:26;22.80;92.14
66506;HTU21D;53332;51.082;5.832;2023-07-24T14:55:06;22.66;91.14
66506;HTU21D;53332;51.082;5.832;2023-07-24T14:58:01;22.52;91.66
66506;HTU21D;53332;51.082;5.832;2023-07-24T15:00:27;22.50;90.62
66506;HTU21D;53332;51.082;5.832;2023-07-24T15:02:54;22.47;90.65
66506;HTU21D;53332;51.082;5.832;2023-07-24T15:05:19;22.50;91.67
66506;HTU21D;53332;51.082;5.832;2023-07-24T15:07:45;22.47;90.89
66506;HTU21D;53332;51.082;5.832;2023-07-24T15:10:39;22.37;90.84
66506;HTU21D;53332;51.082;5.832;2023-07-24T15:13:51;22.34;90.81
66506;HTU21D;53332;51.082;5.832;2023-07-24T15:16:17;22.35;91.27
66506;HTU21D;53332;51.082;5.832;2023-07-24T15:18:42;22.41;92.11
66506;HTU21D;53332;51.082;5.832;2023-07-24T15:21:51;22.49;92.64
66506;HTU21D;53332;51.082;5.832;2023-07-24T15:24:23;22.49;92.39
66506;HTU21D;53332;51.082;5.832;2023-07-24T15:26:48;22.47;92.54